KEYW/EYW METAR and TAF weather

Enter ICAO airport designator
Station Type Date Time Source
KEYW METAR 2020/01/23 14:53 UTC NOAA

KEYW 231453Z 03008KT 10SM CLR 20/16 A3005 RMK AO2 SLP175 T02000161 51010


Station Type Date Time Source
KEYW Decoded METAR 2020/01/23 14:53 UTC NOAA

KEY WEST INTERNATIONAL AIRPORT , FL, United States (KEYW) 24-33N 81-46W 5M
Jan 23, 2020 - 09:53 AM EST / 2020.01.23 1453 UTC
Wind: from the NNE (030 degrees) at 9 MPH (8 KT):0
Visibility: 10 mile(s):0
Sky conditions: clear
Temperature: 68.0 F (20.0 C)
Dew Point: 61.0 F (16.1 C)
Relative Humidity: 78%
Pressure (altimeter): 30.05 in. Hg (1017 hPa)
Pressure tendency: 0.03 inches (1.0 hPa) higher than three hours ago
ob: KEYW 231453Z 03008KT 10SM CLR 20/16 A3005 RMK AO2 SLP175 T02000161 51010
cycle: 15

Station Type Date Time Source
KEYW TAF 2020/01/23 15:54 UTC NOAA

TAF
AMD KEYW 231451Z 2315/2412 04009KT P6SM FEW025
FM240000 07008KT P6SM SCT025
FM240600 VRB05KT P6SM SCT015 BKN025

Example: see airport list